フォルタレザ の空港の天気 - METARとTAF

フォルタレザ/ピント・マーティンズ国際空港 ( SBFZ / FOR ) - ブラジル セアラー州フォルタレザ
飛行場実況気象(Metar)
観測時間08/17 08:00 BRT (08/17 11:00 UTC)
風向・風速南東 7m/s
視程10km以上
天気現象
少しの雲 雲底高度 730m
全天の4割程度の雲 雲底高度 2130m
気温27℃
湿度62%
気圧1016hPa
METARSBFZ 171100Z 13014KT 9999 FEW024 SCT070 27/19 Q1016
過去の天気等 Google飛行場航空写真 Wunderground天気予報

過去48時間のMETAR

飛行場予報(TAF)
発表時間: 8/17 07:00 BRT (8/17 10:00 UTC)
予報対象時間: 17日9時 BRT ~ 18日9時 BRT
風向・風速南東 4m/s
視程10km以上
全天の4割程度の雲 雲底高度 670m
17日10時 BRT ~ 17日12時 BRT に徐々に
風向・風速東 8m/s
視程10km以上
全天の4割程度の雲 雲底高度 760m
17日19時 BRT ~ 17日20時 BRT に徐々に
風向・風速東 5m/s
少しの雲 雲底高度 610m
TAF SBFZ 171000Z 1712/1812 13008KT 9999 SCT022 TX30/1717Z TN25/1806Z
BECMG 1713/1715 09015KT 9999 SCT025
BECMG 1722/1723 08010KT FEW020 RMK PFM